createdAt,value
2023-04-02T00:00:40.550Z,46.84
2023-04-02T00:01:40.537Z,48.57
2023-04-02T00:02:40.597Z,48.26
2023-04-02T00:03:40.515Z,47.32
2023-04-02T00:04:40.415Z,48.60
2023-04-02T00:05:40.420Z,48.61
2023-04-02T00:06:40.598Z,49.15
2023-04-02T00:07:40.427Z,50.23
2023-04-02T00:08:40.423Z,50.00
2023-04-02T00:09:40.420Z,47.66
2023-04-02T00:10:40.428Z,48.59
2023-04-02T00:11:41.095Z,48.35
2023-04-02T00:12:40.434Z,48.48
2023-04-02T00:13:40.433Z,50.54
2023-04-02T00:14:40.427Z,49.50
2023-04-02T00:15:40.455Z,48.93
2023-04-02T00:16:40.498Z,50.37
2023-04-02T00:17:40.444Z,49.29
2023-04-02T00:18:40.612Z,51.18
2023-04-02T00:19:41.117Z,51.32
2023-04-02T00:20:40.451Z,50.10
2023-04-02T00:21:40.458Z,51.33
2023-04-02T00:22:40.455Z,49.44
2023-04-02T00:23:40.481Z,50.33
2023-04-02T00:24:41.433Z,50.51
2023-04-02T00:25:40.393Z,50.73
2023-04-02T00:26:40.353Z,51.41
2023-04-02T00:27:40.321Z,50.85
2023-04-02T00:28:40.296Z,51.91
2023-04-02T00:29:40.250Z,52.63
2023-04-02T00:30:40.213Z,49.92
2023-04-02T00:31:40.194Z,49.60
2023-04-02T00:32:40.184Z,49.96
2023-04-02T00:33:40.097Z,51.65
2023-04-02T00:34:40.055Z,51.52
2023-04-02T00:35:40.034Z,50.30
2023-04-02T00:36:39.991Z,51.82
2023-04-02T00:37:40.015Z,49.26
2023-04-02T00:38:40.021Z,50.49
2023-04-02T00:39:40.009Z,50.55
2023-04-02T00:40:40.701Z,50.91
2023-04-02T00:41:40.019Z,50.39
2023-04-02T00:42:40.022Z,51.40
2023-04-02T00:43:40.139Z,51.40
2023-04-02T00:44:40.060Z,49.44
2023-04-02T00:45:40.075Z,50.96
2023-04-02T00:46:40.059Z,51.63
2023-04-02T00:47:40.108Z,50.80
2023-04-02T00:48:40.062Z,50.63
2023-04-02T00:49:40.066Z,52.52
2023-04-02T00:50:40.077Z,50.27
2023-04-02T00:51:40.064Z,50.74
2023-04-02T00:52:40.080Z,51.76
2023-04-02T00:53:40.102Z,49.51
2023-04-02T00:54:40.060Z,52.24
2023-04-02T00:55:40.090Z,50.44
2023-04-02T00:56:40.074Z,49.38
2023-04-02T00:57:40.089Z,49.79
2023-04-02T00:58:40.092Z,50.60
2023-04-02T00:59:40.116Z,51.22
2023-04-02T01:00:40.110Z,50.95
2023-04-02T01:01:40.133Z,49.57
2023-04-02T01:02:40.163Z,50.17
2023-04-02T01:03:40.291Z,51.06
2023-04-02T01:04:40.144Z,48.95
2023-04-02T01:05:40.125Z,52.40
2023-04-02T01:06:40.125Z,52.57
2023-04-02T01:07:40.140Z,50.42
2023-04-02T01:08:40.191Z,51.28
2023-04-02T01:09:40.140Z,50.41
2023-04-02T01:10:40.143Z,50.12
2023-04-02T01:11:40.145Z,49.74
2023-04-02T01:12:40.152Z,50.56
2023-04-02T01:13:40.221Z,51.61
2023-04-02T01:14:40.169Z,52.17
2023-04-02T01:15:40.211Z,52.16
2023-04-02T01:16:40.185Z,51.40
2023-04-02T01:17:40.246Z,49.57
2023-04-02T01:18:40.197Z,50.38
2023-04-02T01:19:40.206Z,50.58
2023-04-02T01:20:40.212Z,50.82
2023-04-02T01:21:40.217Z,50.99
2023-04-02T01:22:40.234Z,51.72
2023-04-02T01:23:40.230Z,50.28
2023-04-02T01:24:40.230Z,49.66
2023-04-02T01:25:40.238Z,51.77
2023-04-02T01:26:40.255Z,50.20
2023-04-02T01:27:40.260Z,51.48
2023-04-02T01:28:40.319Z,50.07
2023-04-02T01:29:40.286Z,50.27
2023-04-02T01:30:40.275Z,51.39
2023-04-02T01:31:40.371Z,51.85
2023-04-02T01:32:40.324Z,50.63
2023-04-02T01:33:40.350Z,50.41
2023-04-02T01:34:40.319Z,50.19
2023-04-02T01:35:40.350Z,47.56
2023-04-02T01:36:40.324Z,51.47
2023-04-02T01:37:40.342Z,48.82
2023-04-02T01:38:40.356Z,50.98
2023-04-02T01:39:40.347Z,48.51
2023-04-02T01:40:40.363Z,48.93
2023-04-02T01:41:40.362Z,50.79
2023-04-02T01:42:40.367Z,50.31
2023-04-02T01:43:40.377Z,49.25
2023-04-02T01:44:40.652Z,48.09
2023-04-02T01:45:40.398Z,50.01
2023-04-02T01:46:40.449Z,50.22
2023-04-02T01:47:40.428Z,47.88
2023-04-02T01:48:40.417Z,49.33
2023-04-02T01:49:40.433Z,49.56
2023-04-02T01:50:40.433Z,50.63
2023-04-02T01:51:40.448Z,49.67
2023-04-02T01:52:41.138Z,48.06
2023-04-02T01:53:40.473Z,49.63
2023-04-02T01:54:40.491Z,49.38
2023-04-02T01:55:40.500Z,50.12
2023-04-02T01:56:40.505Z,47.18
2023-04-02T01:57:40.518Z,48.14
2023-04-02T01:58:40.525Z,48.50
2023-04-02T01:59:40.544Z,50.43
2023-04-02T02:00:40.567Z,48.01
2023-04-02T02:01:40.563Z,48.94
2023-04-02T02:02:40.685Z,47.39
2023-04-02T02:03:40.581Z,48.76
2023-04-02T02:04:40.613Z,48.30
2023-04-02T02:05:40.607Z,47.91
2023-04-02T02:06:40.617Z,49.44
2023-04-02T02:07:40.636Z,47.84
2023-04-02T02:08:40.639Z,47.02
2023-04-02T02:09:40.653Z,48.00
2023-04-02T02:10:40.663Z,45.53
2023-04-02T02:11:40.689Z,48.38
2023-04-02T02:12:40.694Z,47.51
2023-04-02T02:13:42.091Z,47.53
2023-04-02T02:14:40.718Z,48.09
2023-04-02T02:15:40.799Z,46.07
2023-04-02T02:16:40.750Z,48.68
2023-04-02T02:17:40.790Z,47.41
2023-04-02T02:18:40.760Z,46.56
2023-04-02T02:19:40.769Z,47.63
2023-04-02T02:20:40.771Z,47.13
2023-04-02T02:21:40.819Z,47.69
2023-04-02T02:22:40.803Z,47.03
2023-04-02T02:23:41.156Z,46.26
2023-04-02T02:24:40.797Z,46.11
2023-04-02T02:25:40.818Z,47.33
2023-04-02T02:26:40.830Z,47.18
2023-04-02T02:27:40.840Z,46.64
2023-04-02T02:28:40.844Z,48.57
2023-04-02T02:29:40.869Z,45.75
2023-04-02T02:30:40.879Z,47.25
2023-04-02T02:31:40.934Z,47.88
2023-04-02T02:32:40.934Z,44.46
2023-04-02T02:33:40.919Z,45.57
2023-04-02T02:34:40.930Z,45.25
2023-04-02T02:35:41.006Z,46.68
2023-04-02T02:36:40.960Z,45.16
2023-04-02T02:37:41.162Z,46.16
2023-04-02T02:38:41.067Z,46.06
2023-04-02T02:39:41.653Z,45.27
2023-04-02T02:40:41.065Z,46.34
2023-04-02T02:41:41.017Z,45.90
2023-04-02T02:42:41.037Z,44.23
2023-04-02T02:43:41.040Z,45.91
2023-04-02T02:44:41.063Z,44.54
2023-04-02T02:45:41.153Z,46.10
2023-04-02T02:46:41.093Z,45.42
2023-04-02T02:47:41.685Z,46.96
2023-04-02T02:48:41.117Z,44.09
2023-04-02T02:49:41.126Z,44.57
2023-04-02T02:50:41.184Z,44.35
2023-04-02T02:51:41.160Z,44.87
2023-04-02T02:52:41.176Z,44.20
2023-04-02T02:53:41.171Z,44.19
2023-04-02T02:54:41.186Z,44.00
2023-04-02T02:55:41.200Z,44.19
2023-04-02T02:56:41.270Z,45.01
2023-04-02T02:57:41.227Z,43.06
2023-04-02T02:58:41.239Z,43.65
2023-04-02T02:59:41.243Z,45.25
2023-04-02T03:00:41.252Z,45.70
2023-04-02T03:01:41.339Z,44.80
2023-04-02T03:02:41.398Z,45.54
2023-04-02T03:03:41.474Z,46.10
2023-04-02T03:04:41.307Z,45.02
2023-04-02T03:05:41.325Z,44.30
2023-04-02T03:06:41.337Z,42.63
2023-04-02T03:07:42.161Z,44.18
2023-04-02T03:08:41.356Z,43.09
2023-04-02T03:09:41.383Z,43.17
2023-04-02T03:10:41.408Z,44.04
2023-04-02T03:11:41.421Z,43.24
2023-04-02T03:12:41.438Z,43.98
2023-04-02T03:13:41.457Z,42.46
2023-04-02T03:14:41.476Z,43.57
2023-04-02T03:15:41.518Z,44.23
2023-04-02T03:16:41.506Z,43.55
2023-04-02T03:17:41.572Z,42.88
2023-04-02T03:18:41.546Z,43.60
2023-04-02T03:19:41.547Z,45.27
2023-04-02T03:20:41.553Z,45.66
2023-04-02T03:21:41.565Z,41.92
2023-04-02T03:22:41.587Z,43.71
2023-04-02T03:23:41.592Z,43.81
2023-04-02T03:24:41.621Z,43.35
2023-04-02T03:25:42.174Z,41.51
2023-04-02T03:26:41.717Z,42.99
2023-04-02T03:27:41.645Z,42.40
2023-04-02T03:28:41.668Z,45.41
2023-04-02T03:29:41.682Z,42.78
2023-04-02T03:30:41.692Z,44.39
2023-04-02T03:31:41.789Z,43.63
2023-04-02T03:32:41.756Z,44.05
2023-04-02T03:33:41.751Z,44.38
2023-04-02T03:34:41.760Z,43.33
2023-04-02T03:35:41.816Z,44.41
2023-04-02T03:36:41.781Z,43.65
2023-04-02T03:37:41.797Z,40.74
2023-04-02T03:38:41.809Z,43.86
2023-04-02T03:39:41.846Z,42.05
2023-04-02T03:40:41.839Z,43.32
2023-04-02T03:41:41.856Z,43.40
2023-04-02T03:42:41.891Z,42.37
2023-04-02T03:43:41.891Z,42.50
2023-04-02T03:44:41.904Z,42.51
2023-04-02T03:45:41.908Z,43.69
2023-04-02T03:46:41.956Z,44.81
2023-04-02T03:47:41.985Z,43.18
2023-04-02T03:48:41.932Z,44.59
2023-04-02T03:49:41.952Z,42.65
2023-04-02T03:50:41.963Z,43.79
2023-04-02T03:51:41.990Z,43.94
2023-04-02T03:52:41.994Z,43.46
2023-04-02T03:53:42.008Z,44.67
2023-04-02T03:54:53.699Z,44.98
2023-04-02T03:55:42.979Z,45.18
2023-04-02T03:56:41.946Z,45.07
2023-04-02T03:57:41.908Z,45.43
2023-04-02T03:58:41.876Z,45.27
2023-04-02T03:59:41.840Z,46.36
2023-04-02T04:00:41.801Z,42.52
2023-04-02T04:01:41.823Z,43.61
2023-04-02T04:02:42.773Z,44.90
2023-04-02T04:03:41.710Z,43.04
2023-04-02T04:04:41.659Z,43.29
2023-04-02T04:05:41.658Z,44.97
2023-04-02T04:06:41.684Z,44.36
2023-04-02T04:07:41.711Z,44.06
2023-04-02T04:08:41.719Z,43.77
2023-04-02T04:09:41.745Z,43.90
2023-04-02T04:10:41.785Z,44.26
2023-04-02T04:11:41.774Z,44.40
2023-04-02T04:12:41.797Z,44.98
2023-04-02T04:13:41.817Z,42.66
2023-04-02T04:14:43.928Z,43.86
2023-04-02T04:15:41.794Z,46.44
2023-04-02T04:16:41.761Z,44.45
2023-04-02T04:17:41.761Z,42.02
2023-04-02T04:18:41.658Z,42.19
2023-04-02T04:19:41.623Z,44.80
2023-04-02T04:20:41.576Z,41.92
2023-04-02T04:21:41.549Z,41.72
2023-04-02T04:22:41.505Z,43.08
2023-04-02T04:23:41.473Z,44.10
2023-04-02T04:24:41.432Z,42.87
2023-04-02T04:25:41.400Z,43.14
2023-04-02T04:26:41.371Z,41.82
2023-04-02T04:27:41.330Z,42.12
2023-04-02T04:28:41.287Z,43.26
2023-04-02T04:29:41.267Z,40.45
2023-04-02T04:30:41.211Z,40.70
2023-04-02T04:31:41.250Z,41.75
2023-04-02T04:32:41.153Z,43.07
2023-04-02T04:33:41.099Z,39.27
2023-04-02T04:34:41.126Z,42.68
2023-04-02T04:35:41.063Z,42.08
2023-04-02T04:36:41.002Z,41.66
2023-04-02T04:37:43.161Z,38.64
2023-04-02T04:38:40.948Z,42.46
2023-04-02T04:39:40.899Z,42.89
2023-04-02T04:40:40.922Z,44.58
2023-04-02T04:41:40.945Z,39.95
2023-04-02T04:42:40.968Z,40.13
2023-04-02T04:43:40.996Z,41.89
2023-04-02T04:44:41.013Z,40.81
2023-04-02T04:45:41.055Z,40.16
2023-04-02T04:46:41.035Z,40.85
2023-04-02T04:47:41.100Z,41.22
2023-04-02T04:48:41.078Z,40.18
2023-04-02T04:49:41.102Z,39.12
2023-04-02T04:50:41.098Z,38.94
2023-04-02T04:51:41.116Z,40.86
2023-04-02T04:52:41.143Z,38.93
2023-04-02T04:53:41.157Z,38.22
2023-04-02T04:54:41.179Z,39.97
2023-04-02T04:55:41.187Z,41.21
2023-04-02T04:56:41.205Z,39.16
2023-04-02T04:57:41.221Z,38.61
2023-04-02T04:58:41.229Z,40.42
2023-04-02T04:59:41.255Z,38.75
2023-04-02T05:00:41.273Z,39.31
2023-04-02T05:01:41.307Z,38.75
2023-04-02T05:02:41.404Z,38.94
2023-04-02T05:03:41.349Z,38.61
2023-04-02T05:04:41.365Z,41.31
2023-04-02T05:05:41.362Z,39.13
2023-04-02T05:06:41.400Z,39.39
2023-04-02T05:07:41.404Z,39.57
2023-04-02T05:08:41.417Z,38.36
2023-04-02T05:09:41.437Z,37.03
2023-04-02T05:10:41.460Z,38.50
2023-04-02T05:11:41.477Z,37.81
2023-04-02T05:12:41.500Z,38.20
2023-04-02T05:13:41.533Z,43.69
2023-04-02T05:14:41.544Z,36.12
2023-04-02T05:15:41.590Z,38.23
2023-04-02T05:16:41.631Z,37.27
2023-04-02T05:17:42.238Z,38.60
2023-04-02T05:18:41.652Z,36.13
2023-04-02T05:19:41.657Z,37.13
2023-04-02T05:20:41.687Z,37.47
2023-04-02T05:21:41.709Z,37.03
2023-04-02T05:22:41.729Z,35.52
2023-04-02T05:23:42.229Z,36.46
2023-04-02T05:24:41.774Z,37.85
2023-04-02T05:25:41.791Z,37.07
2023-04-02T05:26:41.808Z,37.93
2023-04-02T05:27:41.835Z,36.25
2023-04-02T05:28:41.862Z,37.01
2023-04-02T05:29:41.865Z,35.56
2023-04-02T05:30:41.881Z,38.10
2023-04-02T05:31:41.919Z,36.80
2023-04-02T05:32:41.962Z,35.62
2023-04-02T05:33:41.972Z,36.87
2023-04-02T05:34:42.029Z,33.72
2023-04-02T05:35:42.029Z,35.98
2023-04-02T05:36:42.029Z,34.78
2023-04-02T05:37:42.061Z,34.78
2023-04-02T05:38:42.077Z,35.52
2023-04-02T05:39:42.100Z,34.35
2023-04-02T05:40:42.124Z,34.62
2023-04-02T05:41:42.159Z,35.18
2023-04-02T05:42:42.172Z,35.98
2023-04-02T05:43:42.189Z,33.00
2023-04-02T05:44:42.208Z,33.46
2023-04-02T05:45:42.231Z,34.52
2023-04-02T05:46:42.340Z,35.30
2023-04-02T05:47:42.317Z,34.47
2023-04-02T05:48:42.308Z,34.02
2023-04-02T05:49:42.326Z,33.72
2023-04-02T05:50:42.363Z,32.43
2023-04-02T05:51:42.371Z,37.11
2023-04-02T05:52:42.412Z,32.24
2023-04-02T05:53:42.414Z,33.94
2023-04-02T05:54:42.441Z,32.83
2023-04-02T05:55:42.458Z,32.68
2023-04-02T05:56:42.494Z,34.07
2023-04-02T05:57:48.279Z,33.45
2023-04-02T05:58:45.549Z,33.59
2023-04-02T05:59:42.429Z,34.04
2023-04-02T06:00:43.228Z,34.63
2023-04-02T06:01:42.377Z,35.46
2023-04-02T06:02:42.331Z,34.49
2023-04-02T06:03:42.330Z,36.56
2023-04-02T06:04:42.257Z,34.54
2023-04-02T06:05:42.224Z,34.49
2023-04-02T06:06:42.178Z,33.42
2023-04-02T06:07:42.152Z,34.28
2023-04-02T06:08:42.128Z,33.92
2023-04-02T06:09:42.081Z,32.81
2023-04-02T06:10:42.041Z,33.37
2023-04-02T06:11:42.007Z,33.67
2023-04-02T06:12:42.008Z,32.14
2023-04-02T06:13:41.938Z,33.98
2023-04-02T06:14:41.892Z,32.56
2023-04-02T06:15:42.736Z,34.05
2023-04-02T06:16:41.866Z,34.56
2023-04-02T06:17:41.875Z,33.53
2023-04-02T06:18:41.758Z,33.46
2023-04-02T06:19:41.733Z,34.20
2023-04-02T06:20:41.696Z,31.91
2023-04-02T06:21:41.657Z,32.73
2023-04-02T06:22:41.630Z,30.96
2023-04-02T06:23:41.595Z,32.14
2023-04-02T06:24:41.569Z,32.58
2023-04-02T06:25:41.533Z,32.13
2023-04-02T06:26:41.491Z,30.92
2023-04-02T06:27:41.463Z,34.69
2023-04-02T06:28:41.453Z,32.35
2023-04-02T06:29:41.471Z,32.15
2023-04-02T06:30:41.434Z,31.70
2023-04-02T06:31:41.421Z,32.31
2023-04-02T06:32:41.483Z,31.41
2023-04-02T06:33:41.462Z,30.38
2023-04-02T06:34:41.506Z,32.79
2023-04-02T06:35:41.537Z,32.30
2023-04-02T06:36:41.516Z,31.95
2023-04-02T06:37:41.530Z,30.38
2023-04-02T06:38:41.557Z,31.15
2023-04-02T06:39:41.565Z,31.03
2023-04-02T06:40:41.587Z,32.14
2023-04-02T06:41:41.613Z,32.19
2023-04-02T06:42:41.614Z,31.77
2023-04-02T06:43:41.605Z,29.04
2023-04-02T06:44:41.584Z,26.48
2023-04-02T06:45:41.611Z,28.78
2023-04-02T06:46:42.255Z,26.49
2023-04-02T06:47:41.639Z,28.09
2023-04-02T06:48:41.588Z,29.06
2023-04-02T06:49:41.596Z,25.50
2023-04-02T06:50:41.566Z,27.84
2023-04-02T06:51:41.561Z,32.20
2023-04-02T06:52:41.539Z,36.14
2023-04-02T06:53:41.516Z,36.69
2023-04-02T06:54:41.498Z,39.97
2023-04-02T06:55:41.500Z,36.44
2023-04-02T06:56:41.510Z,38.31
2023-04-02T06:57:43.015Z,34.27
2023-04-02T06:58:41.531Z,34.07
2023-04-02T06:59:41.568Z,32.55
2023-04-02T07:00:41.511Z,32.68
2023-04-02T07:01:41.552Z,32.03
2023-04-02T07:02:41.511Z,30.13
2023-04-02T07:03:41.474Z,29.63
2023-04-02T07:04:41.480Z,27.75
2023-04-02T07:05:43.031Z,30.39
2023-04-02T07:06:41.423Z,29.60
2023-04-02T07:07:41.391Z,25.00
2023-04-02T07:08:41.766Z,29.30
2023-04-02T07:09:41.417Z,32.51
2023-04-02T07:10:41.443Z,29.87
2023-04-02T07:11:41.442Z,32.29
2023-04-02T07:12:41.458Z,31.11
2023-04-02T07:13:41.467Z,33.12
2023-04-02T07:14:41.487Z,33.07
2023-04-02T07:15:41.542Z,30.73
2023-04-02T07:16:41.513Z,32.72
2023-04-02T07:17:41.562Z,34.03
2023-04-02T07:18:41.521Z,31.25
2023-04-02T07:19:41.517Z,33.27
2023-04-02T07:20:41.526Z,35.46
2023-04-02T07:21:41.505Z,35.83
2023-04-02T07:22:41.492Z,34.05
2023-04-02T07:23:41.490Z,32.78
2023-04-02T07:24:41.477Z,33.47
2023-04-02T07:25:41.444Z,32.78
2023-04-02T07:26:41.417Z,34.02
2023-04-02T07:27:41.387Z,35.58
2023-04-02T07:28:41.343Z,34.18
2023-04-02T07:29:41.310Z,35.66
2023-04-02T07:30:41.355Z,32.58
2023-04-02T07:31:41.297Z,33.59
2023-04-02T07:32:41.226Z,36.41
2023-04-02T07:33:42.131Z,31.82
2023-04-02T07:34:41.095Z,30.85
2023-04-02T07:35:41.093Z,31.79
2023-04-02T07:36:41.015Z,35.00
2023-04-02T07:37:40.995Z,33.43
2023-04-02T07:38:40.959Z,31.68
2023-04-02T07:39:40.912Z,32.98
2023-04-02T07:40:40.876Z,34.76
2023-04-02T07:41:40.828Z,32.45
2023-04-02T07:42:40.789Z,33.09
2023-04-02T07:43:40.761Z,36.09
2023-04-02T07:44:40.706Z,32.55
2023-04-02T07:45:40.664Z,33.60
2023-04-02T07:46:40.756Z,33.19
2023-04-02T07:47:40.592Z,34.25
2023-04-02T07:48:40.530Z,34.41
2023-04-02T07:49:40.478Z,29.14
2023-04-02T07:50:40.432Z,31.50
2023-04-02T07:51:40.402Z,30.68
2023-04-02T07:52:40.533Z,35.25
2023-04-02T07:53:40.319Z,28.43
2023-04-02T07:54:40.260Z,32.99
2023-04-02T07:55:40.220Z,31.72
2023-04-02T07:56:40.155Z,33.62
2023-04-02T07:57:40.114Z,30.24
2023-04-02T07:58:40.286Z,30.93
2023-04-02T07:59:40.076Z,30.55
2023-04-02T08:00:39.969Z,30.66
2023-04-02T08:01:39.953Z,35.00
2023-04-02T08:02:39.930Z,31.29
2023-04-02T08:03:39.968Z,32.59
2023-04-02T08:04:39.772Z,32.07
2023-04-02T08:05:39.720Z,31.36
2023-04-02T08:06:39.668Z,33.98
2023-04-02T08:07:39.618Z,29.43
2023-04-02T08:08:39.576Z,30.68
2023-04-02T08:09:39.502Z,30.78
2023-04-02T08:10:39.450Z,36.13
2023-04-02T08:11:39.386Z,32.73
2023-04-02T08:12:39.322Z,34.34
2023-04-02T08:13:39.273Z,37.49
2023-04-02T08:14:39.216Z,34.28
2023-04-02T08:15:39.156Z,33.23
2023-04-02T08:16:39.144Z,34.90
2023-04-02T08:17:39.091Z,31.84
2023-04-02T08:18:39.025Z,36.28
2023-04-02T08:19:48.179Z,36.81
2023-04-02T08:20:39.919Z,36.94
2023-04-02T08:21:38.854Z,36.62
2023-04-02T08:22:38.779Z,35.39
2023-04-02T08:23:38.721Z,36.54
2023-04-02T08:24:38.652Z,38.87
2023-04-02T08:25:38.586Z,37.25
2023-04-02T08:26:38.526Z,37.04
2023-04-02T08:27:38.458Z,37.30
2023-04-02T08:28:38.404Z,39.16
2023-04-02T08:29:38.343Z,42.42
2023-04-02T08:30:38.317Z,39.12
2023-04-02T08:31:38.227Z,39.85
2023-04-02T08:32:38.241Z,37.18
2023-04-02T08:33:38.099Z,39.22
2023-04-02T08:34:38.057Z,39.72
2023-04-02T08:35:38.248Z,42.13
2023-04-02T08:36:37.937Z,39.06
2023-04-02T08:37:37.879Z,40.67
2023-04-02T08:38:38.307Z,40.16
2023-04-02T08:39:37.774Z,38.61
2023-04-02T08:40:37.723Z,40.09
2023-04-02T08:41:37.688Z,41.13
2023-04-02T08:42:37.683Z,42.77
2023-04-02T08:43:37.655Z,40.94
2023-04-02T08:44:37.626Z,41.37
2023-04-02T08:45:37.627Z,41.27
2023-04-02T08:46:37.712Z,43.59
2023-04-02T08:47:37.623Z,43.77
2023-04-02T08:48:37.562Z,41.53
2023-04-02T08:49:38.300Z,45.01
2023-04-02T08:50:37.534Z,42.27
2023-04-02T08:51:37.518Z,45.25
2023-04-02T08:52:37.502Z,43.33
2023-04-02T08:53:37.491Z,41.79
2023-04-02T08:54:37.468Z,45.31
2023-04-02T08:55:37.579Z,42.93
2023-04-02T08:56:37.434Z,41.70
2023-04-02T08:57:37.471Z,42.80
2023-04-02T08:58:37.431Z,43.87
2023-04-02T08:59:37.496Z,44.75
2023-04-02T09:00:38.081Z,43.92
2023-04-02T09:01:37.416Z,41.81
2023-04-02T09:02:37.407Z,41.64
2023-04-02T09:03:37.809Z,45.32
2023-04-02T09:04:37.384Z,41.10
2023-04-02T09:05:37.429Z,44.07
2023-04-02T09:06:37.318Z,40.74
2023-04-02T09:07:37.300Z,44.14
2023-04-02T09:08:37.281Z,45.74
2023-04-02T09:09:37.266Z,43.27
2023-04-02T09:10:37.250Z,43.23
2023-04-02T09:11:37.223Z,44.28
2023-04-02T09:12:37.205Z,47.88
2023-04-02T09:13:37.184Z,41.04
2023-04-02T09:14:37.170Z,40.85
2023-04-02T09:15:37.362Z,43.04
2023-04-02T09:16:37.124Z,42.24
2023-04-02T09:17:50.593Z,42.35
2023-04-02T09:18:38.060Z,42.50
2023-04-02T09:19:36.980Z,42.51
2023-04-02T09:20:36.931Z,43.54
2023-04-02T09:21:37.317Z,41.30
2023-04-02T09:22:36.810Z,43.92
2023-04-02T09:23:36.758Z,40.51
2023-04-02T09:24:36.706Z,42.84
2023-04-02T09:25:36.797Z,42.02
2023-04-02T09:26:36.556Z,44.27
2023-04-02T09:27:36.509Z,43.69
2023-04-02T09:28:36.444Z,40.71
2023-04-02T09:29:36.393Z,41.32
2023-04-02T09:30:36.323Z,42.95
2023-04-02T09:31:36.288Z,43.00
2023-04-02T09:32:36.206Z,39.49
2023-04-02T09:33:36.136Z,41.63
2023-04-02T09:34:36.092Z,38.43
2023-04-02T09:35:36.031Z,40.17
2023-04-02T09:36:35.991Z,38.87
2023-04-02T09:37:35.942Z,40.00
2023-04-02T09:38:35.903Z,37.93
2023-04-02T09:39:35.873Z,39.82
2023-04-02T09:40:35.827Z,37.80
2023-04-02T09:41:36.978Z,38.84
2023-04-02T09:42:35.733Z,38.46
2023-04-02T09:43:35.716Z,37.08
2023-04-02T09:44:35.682Z,36.14
2023-04-02T09:45:35.718Z,39.54
2023-04-02T09:46:35.630Z,36.48
2023-04-02T09:47:37.045Z,40.23
2023-04-02T09:48:35.508Z,38.25
2023-04-02T09:49:35.483Z,38.43
2023-04-02T09:50:35.467Z,37.21
2023-04-02T09:51:35.382Z,34.84
2023-04-02T09:52:35.335Z,40.67
2023-04-02T09:53:35.296Z,35.03
2023-04-02T09:54:35.260Z,39.16
2023-04-02T09:55:35.353Z,41.43
2023-04-02T09:56:35.185Z,40.81
2023-04-02T09:57:35.198Z,41.41
2023-04-02T09:58:35.131Z,43.81
2023-04-02T09:59:35.100Z,40.43
2023-04-02T10:00:35.100Z,41.26
2023-04-02T10:01:35.359Z,41.75
2023-04-02T10:02:35.047Z,42.84
2023-04-02T10:03:35.006Z,45.59
2023-04-02T10:04:35.043Z,41.97
2023-04-02T10:06:34.913Z,41.22
2023-04-02T10:07:34.850Z,46.55
2023-04-02T10:08:34.899Z,44.97
2023-04-02T10:09:34.732Z,45.14
2023-04-02T10:10:34.850Z,46.53
2023-04-02T10:11:46.424Z,44.51
2023-04-02T10:12:35.554Z,44.84
2023-04-02T10:13:34.493Z,45.63
2023-04-02T10:14:34.464Z,46.35
2023-04-02T10:15:34.733Z,46.19
2023-04-02T10:16:34.362Z,44.24
2023-04-02T10:17:34.257Z,44.42
2023-04-02T10:18:34.183Z,46.24
2023-04-02T10:19:34.832Z,49.13
2023-04-02T10:20:39.093Z,45.09
2023-04-02T10:21:35.013Z,45.30
2023-04-02T10:22:33.961Z,45.63
2023-04-02T10:23:33.911Z,46.86
2023-04-02T10:24:33.880Z,47.45
2023-04-02T10:25:33.951Z,45.48
2023-04-02T10:26:33.774Z,49.29
2023-04-02T10:27:33.713Z,48.68
2023-04-02T10:28:33.635Z,46.23
2023-04-02T10:29:33.582Z,44.20
2023-04-02T10:30:33.565Z,46.72
2023-04-02T10:31:33.489Z,45.12
2023-04-02T10:32:33.453Z,44.21
2023-04-02T10:33:33.370Z,43.40
2023-04-02T10:34:33.301Z,45.95
2023-04-02T10:35:33.303Z,43.58
2023-04-02T10:36:33.258Z,47.27
2023-04-02T10:37:33.242Z,44.14
2023-04-02T10:38:33.230Z,42.64
2023-04-02T10:39:33.230Z,42.97
2023-04-02T10:40:33.225Z,47.97
2023-04-02T10:41:33.211Z,43.10
2023-04-02T10:42:33.209Z,45.06
2023-04-02T10:43:33.218Z,44.78
2023-04-02T10:44:33.206Z,45.51
2023-04-02T10:45:33.229Z,42.03
2023-04-02T10:46:33.251Z,43.36
2023-04-02T10:47:33.248Z,44.03
2023-04-02T10:48:33.182Z,47.05
2023-04-02T10:49:33.258Z,43.81
2023-04-02T10:50:33.182Z,46.18
2023-04-02T10:51:33.184Z,46.64
2023-04-02T10:52:33.176Z,48.31
2023-04-02T10:53:33.180Z,44.67
2023-04-02T10:54:33.194Z,44.04
2023-04-02T10:55:33.358Z,43.18
2023-04-02T10:56:44.030Z,47.56
2023-04-02T10:57:34.295Z,47.72
2023-04-02T10:58:33.049Z,47.79
2023-04-02T10:59:33.002Z,47.94
2023-04-02T11:00:32.937Z,46.97
2023-04-02T11:01:32.935Z,48.77
2023-04-02T11:02:32.897Z,47.21
2023-04-02T11:03:32.844Z,45.49
2023-04-02T11:04:32.729Z,49.18
2023-04-02T11:05:32.696Z,47.54
2023-04-02T11:06:33.635Z,47.66
2023-04-02T11:07:32.572Z,47.91
2023-04-02T11:08:32.526Z,48.11
2023-04-02T11:09:32.548Z,48.96
2023-04-02T11:10:32.485Z,49.68
2023-04-02T11:11:32.372Z,50.03
2023-04-02T11:12:32.333Z,49.99
2023-04-02T11:13:32.279Z,49.96
2023-04-02T11:14:32.224Z,45.94
2023-04-02T11:15:32.170Z,49.62
2023-04-02T11:16:32.175Z,46.88
2023-04-02T11:17:32.119Z,46.14
2023-04-02T11:18:32.087Z,49.01
2023-04-02T11:19:32.081Z,49.17
2023-04-02T11:20:32.090Z,47.05
2023-04-02T11:21:32.104Z,49.08
2023-04-02T11:22:32.106Z,48.48
2023-04-02T11:23:32.120Z,47.81
2023-04-02T11:24:32.122Z,44.82
2023-04-02T11:25:32.129Z,47.56
2023-04-02T11:26:32.138Z,43.71
2023-04-02T11:27:32.367Z,43.93
2023-04-02T11:28:32.154Z,45.61
2023-04-02T11:29:32.169Z,42.17
2023-04-02T11:30:32.175Z,42.50
2023-04-02T11:31:32.192Z,46.88
2023-04-02T11:32:32.199Z,42.76
2023-04-02T11:33:37.642Z,46.12
2023-04-02T11:34:33.131Z,46.23
2023-04-02T11:35:32.079Z,46.65
2023-04-02T11:36:32.025Z,45.83
2023-04-02T11:37:31.967Z,42.66
2023-04-02T11:38:31.988Z,44.44
2023-04-02T11:39:31.848Z,43.25
2023-04-02T11:40:31.801Z,42.34
2023-04-02T11:41:31.749Z,43.32
2023-04-02T11:42:31.765Z,45.00
2023-04-02T11:43:31.642Z,44.50
2023-04-02T11:44:31.623Z,47.17
2023-04-02T11:46:31.662Z,42.75
2023-04-02T11:47:31.662Z,42.10
2023-04-02T11:48:31.660Z,45.69
2023-04-02T11:49:31.656Z,48.31
2023-04-02T11:50:31.708Z,45.80
2023-04-02T11:51:31.678Z,43.82
2023-04-02T11:52:31.692Z,45.94
2023-04-02T11:53:31.693Z,47.06
2023-04-02T11:54:31.695Z,45.94
2023-04-02T11:55:31.708Z,44.08
2023-04-02T11:56:31.879Z,43.37
2023-04-02T11:57:31.837Z,45.69
2023-04-02T11:58:31.735Z,43.65
2023-04-02T11:59:31.744Z,47.22
2023-04-02T12:00:31.763Z,47.89
2023-04-02T12:01:31.782Z,45.89
2023-04-02T12:02:31.896Z,45.46
2023-04-02T12:03:31.776Z,41.69
2023-04-02T12:04:31.794Z,46.94
2023-04-02T12:05:31.986Z,44.18
2023-04-02T12:06:31.800Z,46.85
2023-04-02T12:07:31.825Z,45.56
2023-04-02T12:08:31.822Z,44.40
2023-04-02T12:09:31.923Z,47.35
2023-04-02T12:10:31.903Z,44.72
2023-04-02T12:11:31.879Z,46.74
2023-04-02T12:12:31.857Z,45.47
2023-04-02T12:13:31.877Z,45.75
2023-04-02T12:14:31.888Z,43.93
2023-04-02T12:15:31.898Z,45.30
2023-04-02T12:16:31.956Z,48.56
2023-04-02T12:17:32.037Z,48.22
2023-04-02T12:18:34.882Z,46.73
2023-04-02T12:19:31.882Z,49.48
2023-04-02T12:20:31.839Z,48.64
2023-04-02T12:21:31.778Z,48.92
2023-04-02T12:22:31.719Z,46.71
2023-04-02T12:23:31.658Z,48.85
2023-04-02T12:24:31.673Z,45.75
2023-04-02T12:25:31.545Z,46.49
2023-04-02T12:26:31.502Z,44.26
2023-04-02T12:27:31.433Z,46.89
2023-04-02T12:28:31.376Z,48.37
2023-04-02T12:29:31.329Z,47.78
2023-04-02T12:30:31.279Z,49.41
2023-04-02T12:31:31.295Z,48.12
2023-04-02T12:32:31.252Z,48.37
2023-04-02T12:33:31.122Z,48.31
2023-04-02T12:34:31.117Z,47.68
2023-04-02T12:35:31.036Z,47.95
2023-04-02T12:36:30.969Z,46.68
2023-04-02T12:37:30.917Z,48.10
2023-04-02T12:38:30.884Z,47.28
2023-04-02T12:39:30.821Z,44.95
2023-04-02T12:40:30.771Z,47.73
2023-04-02T12:41:30.708Z,47.71
2023-04-02T12:42:30.680Z,47.19
2023-04-02T12:43:30.611Z,46.46
2023-04-02T12:44:30.578Z,45.18
2023-04-02T12:45:30.614Z,49.97
2023-04-02T12:46:30.530Z,49.45
2023-04-02T12:47:31.433Z,49.60
2023-04-02T12:48:30.364Z,50.07
2023-04-02T12:49:30.296Z,49.21
2023-04-02T12:50:30.240Z,46.58
2023-04-02T12:51:30.223Z,47.34
2023-04-02T12:52:30.122Z,47.98
2023-04-02T12:53:30.161Z,49.06
2023-04-02T12:54:30.016Z,46.62